Time;durP1;ratioP1;P1;durP2;ratioP2;P2;SDS_P1;SDS_P2;PMS_P1;PMS_P2;Temp;Humidity;BMP_temperature;BMP_pressure;BME280_temperature;BME280_humidity;BME280_pressure;Samples;Min_cycle;Max_cycle;Signal;HPM_P1;HPM_P2
2022/01/01 00:00:13;;;;;;;43.10;26.65;;;;;;;12.81;100.00;102224.19;5012545;28;20050;-50
2022/01/01 00:02:41;;;;;;;41.80;26.55;;;;;;;12.79;100.00;102228.03;4992870;28;20133;-48
2022/01/01 00:05:10;;;;;;;42.35;27.33;;;;;;;12.81;100.00;102226.94;4992882;28;20088;-48
2022/01/01 00:07:44;;;;;;;43.65;26.48;;;;;;;12.83;100.00;102224.78;4995227;28;20112;-47
2022/01/01 00:10:11;;;;;;;43.58;26.95;;;;;;;12.82;100.00;102228.56;4994298;28;20053;-48
2022/01/01 00:12:46;;;;;;;42.15;25.75;;;;;;;12.79;100.00;102219.81;4994219;28;20038;-52
2022/01/01 00:15:15;;;;;;;;;;;;;;;12.83;100.00;102235.72;4994414;28;20112;-50
2022/01/01 00:17:43;;;;;;;39.33;23.45;;;;;;;12.81;100.00;102235.97;4995901;28;19932;-51
2022/01/01 00:20:12;;;;;;;43.15;24.02;;;;;;;12.82;100.00;102247.72;5008216;28;20501;-51
2022/01/01 00:22:41;;;;;;;39.15;23.42;;;;;;;12.82;100.00;102239.50;4993874;28;20489;-47
2022/01/01 00:25:10;;;;;;;34.63;21.30;;;;;;;12.81;100.00;102233.22;4993924;28;20046;-51
2022/01/01 00:27:38;;;;;;;39.10;21.65;;;;;;;12.80;100.00;102231.56;4993779;28;20054;-51
2022/01/01 00:30:09;;;;;;;38.05;21.08;;;;;;;12.81;100.00;102246.06;4995185;28;20058;-48
2022/01/01 00:32:37;;;;;;;36.42;20.60;;;;;;;12.79;100.00;102252.63;4994027;28;20513;-51
2022/01/01 00:35:06;;;;;;;30.25;18.90;;;;;;;12.79;100.00;102240.84;4992802;28;20042;-48
2022/01/01 00:37:34;;;;;;;30.10;17.80;;;;;;;12.79;100.00;102247.16;4993650;28;20097;-48
2022/01/01 00:40:02;;;;;;;30.80;18.42;;;;;;;12.80;100.00;102239.78;4994592;28;20046;-49
2022/01/01 00:42:29;;;;;;;28.08;14.88;;;;;;;12.81;100.00;102237.88;4992072;28;20042;-51
2022/01/01 00:44:57;;;;;;;25.52;12.90;;;;;;;12.80;100.00;102237.03;4993886;28;20052;-54
2022/01/01 00:47:25;;;;;;;27.33;12.98;;;;;;;12.80;100.00;102237.03;4994116;28;20393;-49
2022/01/01 00:49:52;;;;;;;24.13;10.85;;;;;;;12.79;100.00;102240.84;5006739;28;20509;-52
2022/01/01 00:52:20;;;;;;;24.55;10.93;;;;;;;12.79;100.00;102228.03;5013309;28;20042;-49
2022/01/01 00:54:47;;;;;;;25.42;11.23;;;;;;;12.79;100.00;102235.38;5013071;28;20140;-51
2022/01/01 00:57:15;;;;;;;22.13;11.55;;;;;;;12.80;100.00;102228.84;5013139;28;20050;-51
2022/01/01 00:59:42;;;;;;;25.73;11.73;;;;;;;12.78;100.00;102226.34;5011321;28;20048;-51
2022/01/01 01:02:10;;;;;;;23.20;10.55;;;;;;;12.78;100.00;102231.81;5013423;28;20052;-49
2022/01/01 01:04:38;;;;;;;25.27;10.95;;;;;;;12.78;100.00;102229.06;5007763;28;20492;-49
2022/01/01 01:07:05;;;;;;;21.42;9.80;;;;;;;12.80;100.00;102231.56;4993210;28;20408;-52
2022/01/01 01:09:33;;;;;;;25.98;11.38;;;;;;;12.79;100.00;102233.50;4997119;28;20492;-51
2022/01/01 01:12:01;;;;;;;26.88;11.75;;;;;;;12.79;100.00;102238.09;5011733;28;20046;-50
2022/01/01 01:14:28;;;;;;;25.40;11.38;;;;;;;12.78;100.00;102234.53;5012997;28;20046;-48
2022/01/01 01:16:57;;;;;;;25.20;10.77;;;;;;;12.78;100.00;102244.66;5013301;28;20050;-47
2022/01/01 01:19:25;;;;;;;23.15;10.60;;;;;;;12.77;100.00;102249.31;5003146;28;20039;-51
2022/01/01 01:21:52;;;;;;;28.67;11.05;;;;;;;12.77;100.00;102243.84;5005391;28;20046;-50
2022/01/01 01:24:23;;;;;;;24.63;10.52;;;;;;;12.76;100.00;102241.34;4993065;28;20038;-49
2022/01/01 01:26:53;;;;;;;23.95;10.77;;;;;;;12.76;100.00;102247.63;4993560;28;20042;-50
2022/01/01 01:29:20;;;;;;;29.00;11.57;;;;;;;12.76;100.00;102250.38;4996740;28;20141;-49
2022/01/01 01:31:48;;;;;;;27.60;10.90;;;;;;;12.74;100.00;102258.00;5012871;28;20073;-49
2022/01/01 01:34:16;;;;;;;22.88;9.82;;;;;;;12.74;100.00;102257.16;5012689;28;20053;-50
2022/01/01 01:36:43;;;;;;;26.25;10.20;;;;;;;12.74;100.00;102255.25;5012663;28;20064;-49
2022/01/01 01:39:11;;;;;;;27.08;10.30;;;;;;;12.75;100.00;102259.66;5012534;28;20038;-50
2022/01/01 01:41:42;;;;;;;22.13;10.20;;;;;;;12.75;100.00;102256.94;5011104;28;20056;-51
2022/01/01 01:44:23;;;;;;;24.92;9.65;;;;;;;12.76;100.00;102261.31;5012757;28;20042;-51
2022/01/01 01:46:51;;;;;;;29.02;10.65;;;;;;;12.75;100.00;102256.94;5012771;28;20044;-51
2022/01/01 01:49:19;;;;;;;26.13;10.32;;;;;;;12.75;100.00;102254.19;5004733;28;20503;-49
2022/01/01 01:51:46;;;;;;;23.08;9.60;;;;;;;12.75;100.00;102261.59;4993036;28;20043;-50
2022/01/01 01:54:15;;;;;;;22.45;9.48;;;;;;;12.75;100.00;102273.34;4979476;28;20046;-52
2022/01/01 01:56:46;;;;;;;22.10;10.32;;;;;;;12.76;100.00;102274.16;4997085;28;20046;-50
2022/01/01 01:59:15;;;;;;;34.22;18.88;;;;;;;12.75;100.00;102278.81;4997607;28;20049;-49
2022/01/01 02:01:42;;;;;;;37.58;18.88;;;;;;;12.76;100.00;102275.00;4996992;28;20447;-49
2022/01/01 02:04:10;;;;;;;25.50;12.32;;;;;;;12.75;100.00;102278.81;4999701;28;20034;-52
2022/01/01 02:06:40;;;;;;;30.08;11.18;;;;;;;12.75;100.00;102278.81;5016303;28;20457;-51
2022/01/01 02:09:11;;;;;;;25.88;10.15;;;;;;;12.76;100.00;102279.63;5016180;28;20073;-48
2022/01/01 02:11:39;;;;;;;25.80;10.65;;;;;;;12.74;100.00;102279.88;5014498;28;20042;-51
2022/01/01 02:14:17;;;;;;;24.58;10.10;;;;;;;12.75;100.00;102276.09;5016393;28;20099;-50
2022/01/01 02:19:23;;;;;;;26.20;10.48;;;;;;;12.75;100.00;102276.09;5007467;28;20046;-50
2022/01/01 02:21:56;;;;;;;25.70;10.13;;;;;;;12.76;100.00;102266.78;5006801;28;20034;-53
2022/01/01 02:24:25;;;;;;;20.90;9.55;;;;;;;12.78;100.00;102272.03;5015720;28;20077;-50
2022/01/01 02:26:53;;;;;;;28.08;9.90;;;;;;;12.79;100.00;102263.56;5010482;28;20035;-52
2022/01/01 02:29:21;;;;;;;21.65;8.50;;;;;;;12.79;100.00;102260.00;4996405;28;20047;-50
2022/01/01 02:31:50;;;;;;;25.17;8.95;;;;;;;12.79;100.00;102260.00;4997264;28;20042;-52
2022/01/01 02:34:18;;;;;;;21.27;8.52;;;;;;;12.79;100.00;102255.38;4996275;28;20038;-52
2022/01/01 02:36:46;;;;;;;19.90;8.60;;;;;;;12.82;100.00;102261.41;4997115;28;20042;-53
2022/01/01 02:39:19;;;;;;;28.45;9.43;;;;;;;12.81;100.00;102270.69;4995963;28;20088;-51
2022/01/01 02:41:48;;;;;;;29.35;10.18;;;;;;;12.79;100.00;102269.03;4996120;28;20409;-51
2022/01/01 02:44:15;;;;;;;20.92;8.40;;;;;;;12.78;100.00;102270.09;5014929;28;20045;-50
2022/01/01 02:46:43;;;;;;;23.38;8.27;;;;;;;12.78;100.00;102267.38;5009627;28;20054;-49
2022/01/01 02:49:11;;;;;;;25.98;8.43;;;;;;;12.79;100.00;102269.03;4995849;28;20046;-49
2022/01/01 02:51:39;;;;;;;19.23;7.57;;;;;;;12.79;100.00;102269.03;4994962;28;20065;-48
2022/01/01 02:54:06;;;;;;;23.90;8.52;;;;;;;12.79;100.00;102258.09;4995473;28;20034;-50
2022/01/01 02:56:34;;;;;;;21.65;8.68;;;;;;;12.79;100.00;102255.38;4996339;28;20409;-52
2022/01/01 02:59:01;;;;;;;21.73;8.98;;;;;;;12.78;100.00;102256.44;4995589;28;20062;-49
2022/01/01 03:01:29;;;;;;;23.45;9.55;;;;;;;12.79;100.00;102246.31;4995533;28;20070;-52
2022/01/01 03:03:57;;;;;;;21.85;9.32;;;;;;;12.81;100.00;102238.69;5001574;28;20096;-47
2022/01/01 03:06:28;;;;;;;22.00;8.77;;;;;;;12.80;100.00;102237.03;5009827;28;20402;-50
2022/01/01 03:08:56;;;;;;;18.13;7.78;;;;;;;12.81;100.00;102235.13;4995459;28;20056;-48
2022/01/01 03:11:24;;;;;;;19.00;7.78;;;;;;;12.81;100.00;102237.88;4995464;28;20038;-46
2022/01/01 03:13:52;;;;;;;20.95;8.18;;;;;;;12.80;100.00;102242.53;5004618;28;20460;-50
2022/01/01 03:16:19;;;;;;;18.40;7.57;;;;;;;12.81;100.00;102237.88;5014623;28;20049;-49
2022/01/01 03:18:47;;;;;;;16.67;7.05;;;;;;;12.81;100.00;102237.88;5010764;28;20046;-48
2022/01/01 03:21:15;;;;;;;19.05;8.13;;;;;;;12.81;100.00;102238.69;4995345;28;20519;-47
2022/01/01 03:23:42;;;;;;;22.52;7.95;;;;;;;12.79;100.00;102238.97;4996369;28;20072;-49
2022/01/01 03:26:11;;;;;;;19.42;7.97;;;;;;;12.82;100.00;102242.25;4999875;28;20461;-52
2022/01/01 03:28:38;;;;;;;16.50;7.68;;;;;;;12.83;100.00;102235.72;5014794;28;20046;-50
2022/01/01 03:31:06;;;;;;;17.23;7.32;;;;;;;12.82;100.00;102239.50;5014683;28;20455;-49
2022/01/01 03:33:34;;;;;;;15.90;7.68;;;;;;;12.81;100.00;102243.34;5014559;28;20064;-47
2022/01/01 03:36:02;;;;;;;20.33;8.23;;;;;;;12.79;100.00;102249.91;4996568;28;20463;-50
2022/01/01 03:38:29;;;;;;;16.30;7.53;;;;;;;12.78;100.00;102237.28;4995017;28;20047;-50
2022/01/01 03:40:57;;;;;;;19.52;7.95;;;;;;;12.80;100.00;102234.31;4994746;28;20046;-47
2022/01/01 03:43:25;;;;;;;23.10;9.05;;;;;;;12.79;100.00;102233.50;4994953;28;20046;-48
2022/01/01 03:45:52;;;;;;;19.70;10.27;;;;;;;12.78;100.00;102233.72;5003861;28;20052;-49
2022/01/01 03:48:20;;;;;;;20.45;9.80;;;;;;;12.78;100.00;102234.53;5014087;28;20129;-48
2022/01/01 03:50:48;;;;;;;21.60;9.88;;;;;;;12.78;100.00;102223.59;5014116;28;20034;-47
2022/01/01 03:53:16;;;;;;;18.83;8.95;;;;;;;12.79;100.00;102229.91;5013233;28;20048;-52
2022/01/01 03:55:44;;;;;;;22.05;8.95;;;;;;;12.79;100.00;102217.09;5012056;28;20579;-50
2022/01/01 03:58:11;;;;;;;24.90;9.00;;;;;;;12.80;100.00;102226.09;5014481;28;20052;-51
2022/01/01 04:00:40;;;;;;;18.90;8.68;;;;;;;12.79;100.00;102228.03;5014039;28;20389;-50
2022/01/01 04:03:10;;;;;;;17.10;8.23;;;;;;;12.79;100.00;102224.44;5014110;28;20042;-50
2022/01/01 04:05:40;;;;;;;15.32;7.85;;;;;;;12.82;100.00;102228.56;5008030;28;20045;-49
2022/01/01 04:08:08;;;;;;;15.68;8.38;;;;;;;12.79;100.00;102225.28;4994416;28;20049;-50
2022/01/01 04:10:37;;;;;;;17.27;8.75;;;;;;;12.79;100.00;102225.28;4994325;28;20043;-50
2022/01/01 04:13:06;;;;;;;17.95;7.93;;;;;;;12.80;100.00;102226.09;4994326;28;20050;-50
2022/01/01 04:15:35;;;;;;;21.80;9.10;;;;;;;12.80;100.00;102223.38;4994283;28;20066;-52
2022/01/01 04:18:09;;;;;;;18.00;8.27;;;;;;;12.79;100.00;102222.56;4994345;28;20464;-52
2022/01/01 04:20:38;;;;;;;15.73;7.80;;;;;;;12.82;100.00;102223.09;5012520;28;20050;-49
2022/01/01 04:23:09;;;;;;;17.73;8.75;;;;;;;12.80;100.00;102226.09;5013824;28;20064;-50
2022/01/01 04:25:38;;;;;;;20.10;8.25;;;;;;;12.81;100.00;102235.13;5006498;28;20376;-50
2022/01/01 04:28:06;;;;;;;19.00;7.88;;;;;;;12.81;100.00;102232.41;4994440;28;20049;-54
2022/01/01 04:30:33;;;;;;;16.30;7.50;;;;;;;12.81;100.00;102226.94;4993825;28;20053;-50
2022/01/01 04:33:01;;;;;;;14.98;7.28;;;;;;;12.79;100.00;102225.28;4994165;28;20063;-52
2022/01/01 04:35:29;;;;;;;22.30;10.07;;;;;;;12.79;100.00;102218.97;4992297;28;20049;-52
2022/01/01 04:37:57;;;;;;;19.30;9.65;;;;;;;12.79;100.00;102228.03;4994847;28;20058;-48
2022/01/01 04:40:25;;;;;;;17.77;8.80;;;;;;;12.79;100.00;102233.50;4993673;28;20042;-50
2022/01/01 04:42:52;;;;;;;17.23;8.20;;;;;;;12.79;100.00;102235.38;4993838;28;20156;-50
2022/01/01 04:45:20;;;;;;;14.20;6.97;;;;;;;12.78;100.00;102231.81;4999086;28;20082;-51
2022/01/01 04:47:47;;;;;;;15.05;7.40;;;;;;;12.79;100.00;102229.91;5011865;28;20050;-52
2022/01/01 04:50:15;;;;;;;18.10;7.75;;;;;;;12.79;100.00;102236.22;5013132;28;20048;-56
2022/01/01 04:52:44;;;;;;;15.40;7.35;;;;;;;12.78;100.00;102229.06;5013529;28;20046;-57
2022/01/01 04:55:12;;;;;;;13.07;6.38;;;;;;;12.78;100.00;102229.06;5013138;28;20050;-50
2022/01/01 04:57:39;;;;;;;14.68;6.63;;;;;;;12.78;100.00;102228.25;5000142;28;20057;-50
2022/01/01 05:00:08;;;;;;;19.77;8.32;;;;;;;12.79;100.00;102235.38;4993377;28;20053;-54
2022/01/01 05:02:35;;;;;;;13.70;6.47;;;;;;;12.78;100.00;102237.28;4993633;28;20046;-50
2022/01/01 05:05:03;;;;;;;21.52;7.38;;;;;;;12.79;100.00;102233.50;4998213;28;20412;-48
2022/01/01 05:07:31;;;;;;;15.73;6.72;;;;;;;12.79;100.00;102238.09;5006060;28;20050;-49
2022/01/01 05:09:59;;;;;;;17.67;7.65;;;;;;;12.78;100.00;102237.28;4993464;28;20068;-50
2022/01/01 05:12:27;;;;;;;17.70;7.03;;;;;;;12.78;100.00;102234.53;4993543;28;20085;-49
2022/01/01 05:14:54;;;;;;;15.80;6.72;;;;;;;12.78;100.00;102240.03;4993510;28;20172;-50
2022/01/01 05:17:22;;;;;;;16.05;6.97;;;;;;;12.79;100.00;102241.69;4993875;28;20387;-52
2022/01/01 05:19:50;;;;;;;14.23;7.07;;;;;;;12.79;100.00;102240.84;4993285;28;20401;-52
2022/01/01 05:22:18;;;;;;;14.45;6.43;;;;;;;12.79;100.00;102247.16;4993470;28;20076;-53
2022/01/01 05:24:46;;;;;;;16.85;6.35;;;;;;;12.79;100.00;102247.16;4993045;28;20125;-51
2022/01/01 05:27:13;;;;;;;16.55;6.40;;;;;;;12.78;100.00;102248.22;4994415;28;20038;-51
2022/01/01 05:29:41;;;;;;;20.15;6.95;;;;;;;12.77;100.00;102240.25;4998356;28;20051;-53
2022/01/01 05:32:08;;;;;;;12.85;5.82;;;;;;;12.78;100.00;102247.41;4995983;28;20077;-51
2022/01/01 05:34:36;;;;;;;16.38;6.43;;;;;;;12.78;100.00;102240.03;4998138;28;20493;-47
2022/01/01 05:37:04;;;;;;;17.30;5.97;;;;;;;12.79;100.00;102238.97;5016860;28;20041;-48
2022/01/01 05:39:31;;;;;;;16.40;5.50;;;;;;;12.80;100.00;102237.03;5014738;28;20059;-51
2022/01/01 05:41:59;;;;;;;14.23;5.65;;;;;;;12.81;100.00;102248.81;5016831;28;20042;-48
2022/01/01 05:44:26;;;;;;;13.02;6.15;;;;;;;12.79;100.00;102240.84;5003153;28;20047;-50
2022/01/01 05:46:54;;;;;;;16.05;6.63;;;;;;;12.78;100.00;102237.28;4997192;28;20058;-54
2022/01/01 05:49:22;;;;;;;15.32;5.90;;;;;;;12.80;100.00;102248.00;4998341;28;20057;-48
2022/01/01 05:51:50;;;;;;;15.48;6.22;;;;;;;12.81;100.00;102246.06;4996921;28;20050;-49
2022/01/01 05:54:20;;;;;;;12.02;5.57;;;;;;;12.82;100.00;102250.47;4996748;28;20051;-49
2022/01/01 05:56:47;;;;;;;15.95;6.85;;;;;;;12.79;100.00;102241.69;4996819;28;20050;-47
2022/01/01 05:59:15;;;;;;;13.05;5.70;;;;;;;12.78;100.00;102245.50;4997774;28;20046;-49
2022/01/01 06:01:42;;;;;;;12.45;5.57;;;;;;;12.77;100.00;102232.91;4996764;28;20039;-51
2022/01/01 06:04:10;;;;;;;15.50;5.93;;;;;;;12.77;100.00;102235.63;5009902;28;20052;-49
2022/01/01 06:06:38;;;;;;;12.43;5.88;;;;;;;12.76;100.00;102231.22;5016354;28;20046;-47
2022/01/01 06:09:06;;;;;;;14.57;5.70;;;;;;;12.77;100.00;102235.63;5014709;28;20092;-50
2022/01/01 06:11:33;;;;;;;16.55;6.13;;;;;;;12.76;100.00;102231.22;4996520;28;20046;-53
2022/01/01 06:14:01;;;;;;;12.23;5.32;;;;;;;12.77;100.00;102230.16;4996717;28;20049;-49
2022/01/01 06:16:29;;;;;;;13.30;5.72;;;;;;;12.80;100.00;102226.09;4996113;28;20500;-51
2022/01/01 06:18:56;;;;;;;13.52;5.55;;;;;;;12.77;100.00;102221.97;4997317;28;20042;-53
2022/01/01 06:21:25;;;;;;;13.52;5.45;;;;;;;12.78;100.00;102218.13;4995189;28;20078;-48
2022/01/01 06:23:52;;;;;;;15.63;6.28;;;;;;;12.74;100.00;102214.22;4996428;28;20050;-48
2022/01/01 06:26:20;;;;;;;19.77;6.95;;;;;;;12.73;100.00;102226.25;4996267;28;20046;-49
2022/01/01 06:28:47;;;;;;;13.00;5.47;;;;;;;12.72;100.00;102232.81;4996500;28;20042;-49
2022/01/01 06:31:15;;;;;;;12.63;5.45;;;;;;;12.71;100.00;102227.59;5015673;28;20046;-49
2022/01/01 06:33:43;;;;;;;15.80;5.88;;;;;;;12.74;100.00;102235.28;5006237;28;20116;-51
2022/01/01 06:36:12;;;;;;;11.50;5.35;;;;;;;12.72;100.00;102238.28;4996214;28;20039;-48
2022/01/01 06:38:41;;;;;;;11.98;5.45;;;;;;;12.71;100.00;102247.56;4994654;28;20034;-51
2022/01/01 06:41:09;;;;;;;12.60;5.55;;;;;;;12.74;100.00;102241.59;4994613;28;20046;-49
2022/01/01 06:43:38;;;;;;;13.63;5.43;;;;;;;12.73;100.00;102244.59;4996034;28;20141;-53
2022/01/01 06:46:06;;;;;;;17.60;6.38;;;;;;;12.70;100.00;102248.66;4995970;28;20066;-48
2022/01/01 06:48:34;;;;;;;12.38;5.53;;;;;;;12.70;100.00;102247.78;4995958;28;20069;-50
2022/01/01 06:51:02;;;;;;;15.43;5.88;;;;;;;12.67;100.00;102243.66;4996969;28;20053;-50
2022/01/01 06:53:30;;;;;;;14.30;5.47;;;;;;;12.68;100.00;102245.31;5005071;28;20038;-49
2022/01/01 06:55:59;;;;;;;11.93;5.32;;;;;;;12.69;100.00;102246.97;5015220;28;20054;-48
2022/01/01 06:58:27;;;;;;;11.65;5.32;;;;;;;12.70;100.00;102256.00;5015375;28;20412;-47
2022/01/01 07:00:55;;;;;;;9.77;5.10;;;;;;;12.69;100.00;102251.63;5005180;28;20034;-52
2022/01/01 07:03:23;;;;;;;11.77;4.82;;;;;;;12.80;100.00;102253.47;5003350;28;20399;-50
2022/01/01 07:05:51;;;;;;;10.68;5.15;;;;;;;12.92;100.00;102250.66;5015222;28;20040;-47
2022/01/01 07:08:18;;;;;;;13.57;5.40;;;;;;;12.89;100.00;102251.13;5015054;28;20515;-53
2022/01/01 07:10:46;;;;;;;9.88;5.00;;;;;;;12.89;100.00;102257.44;5013375;28;20053;-50
2022/01/01 07:13:14;;;;;;;10.27;4.97;;;;;;;12.87;100.00;102259.59;5014000;28;20046;-51
2022/01/01 07:15:42;;;;;;;13.75;4.90;;;;;;;12.88;100.00;102255.78;5014915;28;20053;-50
2022/01/01 07:18:10;;;;;;;13.63;5.55;;;;;;;12.89;100.00;102262.06;5015100;28;20042;-50
2022/01/01 07:20:38;;;;;;;13.13;5.30;;;;;;;12.88;100.00;102274.09;5005320;28;20487;-50
2022/01/01 07:23:05;;;;;;;15.30;5.53;;;;;;;12.85;100.00;102277.34;4995106;28;20408;-52
2022/01/01 07:25:33;;;;;;;11.00;5.35;;;;;;;12.91;100.00;102279.06;4994788;28;20053;-50
2022/01/01 07:28:01;;;;;;;11.25;4.78;;;;;;;12.89;100.00;102273.00;4995051;28;20567;-48
2022/01/01 07:30:29;;;;;;;16.20;5.72;;;;;;;12.88;100.00;102280.38;4996327;28;20045;-48
2022/01/01 07:32:56;;;;;;;10.75;5.10;;;;;;;12.86;100.00;102268.88;5007196;28;20408;-50
2022/01/01 07:35:24;;;;;;;11.98;5.47;;;;;;;12.92;100.00;102275.28;4995231;28;20039;-51
2022/01/01 07:37:52;;;;;;;14.57;5.30;;;;;;;12.94;100.00;102275.81;4995358;28;20393;-48
2022/01/01 07:40:20;;;;;;;10.63;5.05;;;;;;;12.96;100.00;102279.16;4994686;28;20125;-48
2022/01/01 07:42:48;;;;;;;11.95;4.90;;;;;;;12.92;100.00;102278.81;4996048;28;20050;-54
2022/01/01 07:45:16;;;;;;;12.10;5.28;;;;;;;12.90;100.00;102280.97;4995051;28;20054;-52
2022/01/01 07:47:44;;;;;;;11.27;5.22;;;;;;;13.01;100.00;102281.97;4994629;28;20520;-52
2022/01/01 07:50:11;;;;;;;10.30;4.82;;;;;;;13.08;100.00;102284.53;4994564;28;20054;-50
2022/01/01 07:52:39;;;;;;;10.77;4.90;;;;;;;13.04;100.00;102288.88;4995547;28;20050;-49
2022/01/01 07:55:07;;;;;;;14.07;5.22;;;;;;;13.07;100.00;102296.56;4994166;28;20049;-49
2022/01/01 07:57:35;;;;;;;10.90;4.43;;;;;;;12.98;100.00;102299.72;4994658;28;20053;-50
2022/01/01 08:00:06;;;;;;;10.13;4.43;;;;;;;12.87;100.00;102308.84;4304130;28;10000839;-49
2022/01/01 08:02:42;;;;;;;11.88;4.72;;;;;;;12.81;100.00;102308.97;4993503;28;20053;-52
2022/01/01 08:05:10;;;;;;;15.52;5.22;;;;;;;12.79;100.00;102301.00;4992966;28;20097;-48
2022/01/01 08:07:38;;;;;;;11.88;5.10;;;;;;;12.81;100.00;102304.34;4992845;28;20074;-50
2022/01/01 08:10:26;;;;;;;12.57;5.28;;;;;;;13.04;100.00;102297.91;4992652;28;20477;-53
2022/01/01 08:12:53;;;;;;;11.65;4.85;;;;;;;13.16;100.00;102309.59;4991585;28;20042;-47
2022/01/01 08:15:21;;;;;;;12.77;4.82;;;;;;;13.13;100.00;102301.88;4995423;28;20477;-53
2022/01/01 08:17:49;;;;;;;16.65;4.90;;;;;;;13.00;100.00;102302.19;4993417;28;20052;-51
2022/01/01 08:20:16;;;;;;;11.88;4.50;;;;;;;12.90;100.00;102308.34;4992654;28;20046;-51
2022/01/01 08:22:44;;;;;;;10.15;4.72;;;;;;;12.85;100.00;102301.94;5000110;28;20405;-51
2022/01/01 08:25:12;;;;;;;11.35;5.05;;;;;;;12.93;100.00;102296.88;4996891;28;20093;-49
2022/01/01 08:27:39;;;;;;;15.15;5.03;;;;;;;12.91;100.00;102287.28;5002832;28;20056;-45
2022/01/01 08:30:07;;;;;;;15.35;4.85;;;;;;;12.79;100.00;102290.06;5012169;28;20045;-48
2022/01/01 08:32:35;;;;;;;12.68;4.47;;;;;;;12.73;100.00;102285.59;5011866;28;20038;-48
2022/01/01 08:35:03;;;;;;;13.60;5.15;;;;;;;12.67;99.93;102287.41;5013628;28;20400;-49
2022/01/01 08:37:31;;;;;;;15.07;5.13;;;;;;;12.63;99.12;102297.19;5012049;28;20061;-50
2022/01/01 08:39:58;;;;;;;8.43;4.05;;;;;;;12.73;100.00;102297.38;5013932;28;20404;-49
2022/01/01 08:42:26;;;;;;;12.18;5.35;;;;;;;12.88;100.00;102293.25;5013221;28;20049;-52
2022/01/01 08:44:54;;;;;;;12.98;4.55;;;;;;;12.85;100.00;102293.75;5013276;28;20420;-50
2022/01/01 08:47:25;;;;;;;11.38;4.72;;;;;;;12.86;100.00;102296.22;5013170;28;20048;-50
2022/01/01 08:49:55;;;;;;;9.38;4.30;;;;;;;12.88;100.00;102294.06;5009288;28;20396;-49
2022/01/01 08:52:24;;;;;;;11.45;4.82;;;;;;;13.06;100.00;102290.28;5013229;28;20056;-47
2022/01/01 08:54:59;;;;;;;12.52;5.10;;;;;;;13.04;100.00;102299.81;5013106;28;20046;-49
2022/01/01 08:57:27;;;;;;;15.13;4.72;;;;;;;13.15;100.00;102291.50;5013076;28;20053;-48
2022/01/01 08:59:54;;;;;;;13.45;5.15;;;;;;;13.14;100.00;102292.59;5011491;28;20038;-49
2022/01/01 09:02:22;;;;;;;11.98;4.78;;;;;;;13.08;100.00;102287.28;5012593;28;20046;-48
2022/01/01 09:04:50;;;;;;;15.60;5.55;;;;;;;12.99;100.00;102297.81;5013004;28;20065;-49
2022/01/01 09:07:17;;;;;;;11.02;5.00;;;;;;;12.85;100.00;102293.75;5012472;28;20041;-50
2022/01/01 09:09:45;;;;;;;11.30;4.75;;;;;;;12.77;100.00;102292.22;5012599;28;20060;-50
2022/01/01 09:12:13;;;;;;;13.82;5.38;;;;;;;12.71;100.00;102294.06;5012732;28;20120;-49
2022/01/01 09:14:41;;;;;;;13.32;5.50;;;;;;;12.68;100.00;102288.25;5013134;28;20050;-51
2022/01/01 09:17:09;;;;;;;12.57;4.78;;;;;;;12.74;100.00;102288.06;5009038;28;20112;-53
2022/01/01 09:19:37;;;;;;;9.20;4.20;;;;;;;12.79;100.00;102290.06;4996413;28;20428;-54
2022/01/01 09:22:04;;;;;;;13.88;5.00;;;;;;;12.74;99.08;102281.78;5006087;28;20069;-50
2022/01/01 09:24:33;;;;;;;14.95;5.57;;;;;;;12.73;99.51;102286.44;4993236;28;20142;-50
2022/01/01 09:27:02;;;;;;;14.20;5.35;;;;;;;12.67;98.39;102292.88;4993248;28;20046;-50
2022/01/01 09:29:29;;;;;;;14.30;5.00;;;;;;;12.64;99.11;102287.91;5000884;28;20038;-53
2022/01/01 09:31:57;;;;;;;13.68;5.30;;;;;;;12.68;98.92;102286.34;5013412;28;20535;-52
2022/01/01 09:34:25;;;;;;;12.60;5.40;;;;;;;12.66;98.80;102291.22;5012778;28;20050;-53
2022/01/01 09:36:54;;;;;;;11.05;5.00;;;;;;;12.66;98.70;102285.75;4995545;28;20043;-51
2022/01/01 09:39:22;;;;;;;16.35;5.75;;;;;;;12.79;100.00;102280.00;4993030;28;20064;-49
2022/01/01 09:41:49;;;;;;;19.33;6.15;;;;;;;12.82;100.00;102288.75;5012153;28;20061;-49
2022/01/01 09:44:18;;;;;;;23.25;6.97;;;;;;;12.89;100.00;102279.34;5010099;28;20050;-50
2022/01/01 09:46:47;;;;;;;18.60;7.00;;;;;;;13.11;100.00;102279.41;4997450;28;20046;-50
2022/01/01 09:49:17;;;;;;;13.18;5.85;;;;;;;13.04;100.00;102276.00;5004217;28;20038;-50
2022/01/01 09:51:45;;;;;;;12.93;4.95;;;;;;;12.88;99.25;102276.84;4993034;28;20047;-51
2022/01/01 09:54:12;;;;;;;14.02;5.07;;;;;;;12.80;98.58;102280.81;4999554;28;20042;-53
2022/01/01 09:56:40;;;;;;;18.00;6.15;;;;;;;12.74;99.38;102284.53;5010327;28;20492;-53
2022/01/01 09:59:07;;;;;;;11.45;5.10;;;;;;;12.71;98.76;102280.38;5012289;28;20386;-52
2022/01/01 10:01:35;;;;;;;12.45;4.93;;;;;;;12.69;99.26;102282.53;5012511;28;20057;-51
2022/01/01 10:04:12;;;;;;;29.00;8.70;;;;;;;12.86;100.00;102274.34;5012194;28;20050;-53
2022/01/01 10:06:41;;;;;;;30.38;8.95;;;;;;;12.91;100.00;102273.59;5011167;28;20062;-52
2022/01/01 10:09:09;;;;;;;24.48;8.10;;;;;;;13.05;100.00;102274.09;5011128;28;20558;-49
2022/01/01 10:11:37;;;;;;;24.90;7.68;;;;;;;13.11;100.00;102270.38;5010842;28;20046;-46
2022/01/01 10:14:06;;;;;;;19.88;6.70;;;;;;;13.14;100.00;102269.88;5014463;28;20041;-49
2022/01/01 10:16:41;;;;;;;18.30;6.30;;;;;;;13.33;100.00;102256.78;5001739;28;20061;-50
2022/01/01 10:19:09;;;;;;;16.75;6.43;;;;;;;13.44;100.00;102242.13;4996331;28;20129;-48
2022/01/01 10:21:41;;;;;;;15.65;5.75;;;;;;;13.29;100.00;102239.19;5011342;28;20050;-51
2022/01/01 10:24:13;;;;;;;16.27;5.68;;;;;;;13.33;100.00;102232.16;4997081;28;20432;-49
2022/01/01 10:29:30;;;;;;;12.27;5.10;;;;;;;13.27;100.00;102220.28;4995138;28;20046;-49
2022/01/01 10:32:03;;;;;;;12.10;5.03;;;;;;;13.49;100.00;102227.69;4996182;28;20049;-49
2022/01/01 10:34:47;;;;;;;11.45;4.75;;;;;;;13.50;100.00;102227.44;4995882;28;20121;-48
2022/01/01 10:37:34;;;;;;;11.88;4.85;;;;;;;13.91;100.00;102219.75;4994695;28;20104;-48
2022/01/01 10:40:07;;;;;;;10.48;4.78;;;;;;;13.70;98.48;102215.09;4996013;28;20044;-51
2022/01/01 10:42:35;;;;;;;14.75;4.82;;;;;;;13.57;98.81;102214.41;4995822;28;20046;-49
2022/01/01 10:45:02;;;;;;;16.85;5.20;;;;;;;13.64;100.00;102220.53;4995758;28;20043;-47
2022/01/01 10:47:32;;;;;;;14.40;4.65;;;;;;;13.70;99.97;102217.84;5012845;28;20042;-49
2022/01/01 10:52:45;;;;;;;11.63;5.10;;;;;;;13.62;100.00;102205.44;5013984;28;20046;-47
2022/01/01 10:55:15;;;;;;;13.80;4.60;;;;;;;13.81;100.00;102208.69;5013729;28;20038;-52
2022/01/01 10:58:03;;;;;;;11.10;4.50;;;;;;;13.76;99.51;102208.63;5013128;28;20133;-45
2022/01/01 11:00:31;;;;;;;11.68;5.03;;;;;;;13.73;99.87;102192.66;5014138;28;20113;-50
2022/01/01 11:02:59;;;;;;;7.85;3.78;;;;;;;13.75;100.00;102193.25;5014195;28;20076;-51
2022/01/01 11:05:38;;;;;;;10.90;4.35;;;;;;;13.61;99.74;102201.88;5013454;28;20048;-47
2022/01/01 11:08:08;;;;;;;10.23;4.20;;;;;;;13.61;100.00;102201.00;5013630;28;20042;-49
2022/01/01 11:10:40;;;;;;;12.63;4.72;;;;;;;13.54;99.74;102195.75;5013548;28;20084;-49
2022/01/01 11:13:09;;;;;;;10.20;4.45;;;;;;;13.64;98.47;102190.41;5014452;28;20138;-52
2022/01/01 11:15:37;;;;;;;10.75;3.80;;;;;;;13.58;100.00;102188.66;5013766;28;20065;-48
2022/01/01 11:18:06;;;;;;;11.32;4.72;;;;;;;13.55;99.29;102193.84;5016140;28;20054;-49
2022/01/01 11:20:35;;;;;;;9.10;3.97;;;;;;;13.47;99.47;102199.72;5015245;28;20508;-54
2022/01/01 11:23:05;;;;;;;8.25;3.83;;;;;;;13.40;99.68;102198.03;4997286;28;20554;-51